sensor_id;sensor_type;location;lat;lon;timestamp;P1;durP1;ratioP1;P2;durP2;ratioP2
76582;SDS011;65462;52.148;7.940;2023-02-28T00:02:15;4.13;;;2.10;;
76582;SDS011;65462;52.148;7.940;2023-02-28T00:04:42;4.07;;;2.30;;
76582;SDS011;65462;52.148;7.940;2023-02-28T00:07:08;6.00;;;2.13;;
76582;SDS011;65462;52.148;7.940;2023-02-28T00:09:33;3.17;;;1.97;;
76582;SDS011;65462;52.148;7.940;2023-02-28T00:11:58;5.00;;;2.47;;
76582;SDS011;65462;52.148;7.940;2023-02-28T00:14:23;4.30;;;2.07;;
76582;SDS011;65462;52.148;7.940;2023-02-28T00:16:48;4.93;;;1.80;;
76582;SDS011;65462;52.148;7.940;2023-02-28T00:19:14;2.97;;;1.70;;
76582;SDS011;65462;52.148;7.940;2023-02-28T00:21:39;5.70;;;2.20;;
76582;SDS011;65462;52.148;7.940;2023-02-28T00:24:05;4.03;;;2.00;;
76582;SDS011;65462;52.148;7.940;2023-02-28T00:26:32;4.30;;;2.20;;
76582;SDS011;65462;52.148;7.940;2023-02-28T00:28:57;3.70;;;1.50;;
76582;SDS011;65462;52.148;7.940;2023-02-28T00:31:23;6.20;;;2.00;;
76582;SDS011;65462;52.148;7.940;2023-02-28T00:33:48;4.97;;;1.83;;
76582;SDS011;65462;52.148;7.940;2023-02-28T00:36:13;4.83;;;1.63;;
76582;SDS011;65462;52.148;7.940;2023-02-28T00:38:39;5.00;;;1.93;;
76582;SDS011;65462;52.148;7.940;2023-02-28T00:41:05;3.60;;;1.77;;
76582;SDS011;65462;52.148;7.940;2023-02-28T00:43:35;4.60;;;1.77;;
76582;SDS011;65462;52.148;7.940;2023-02-28T00:46:02;2.90;;;1.53;;
76582;SDS011;65462;52.148;7.940;2023-02-28T00:48:28;3.30;;;1.80;;
76582;SDS011;65462;52.148;7.940;2023-02-28T00:50:53;5.83;;;1.90;;
76582;SDS011;65462;52.148;7.940;2023-02-28T00:53:19;2.77;;;1.47;;
76582;SDS011;65462;52.148;7.940;2023-02-28T00:55:45;3.60;;;1.67;;
76582;SDS011;65462;52.148;7.940;2023-02-28T00:58:10;5.07;;;1.50;;
76582;SDS011;65462;52.148;7.940;2023-02-28T01:00:35;2.17;;;1.60;;
76582;SDS011;65462;52.148;7.940;2023-02-28T01:03:00;2.43;;;1.40;;
76582;SDS011;65462;52.148;7.940;2023-02-28T01:05:25;3.47;;;1.50;;
76582;SDS011;65462;52.148;7.940;2023-02-28T01:07:51;3.50;;;1.60;;
76582;SDS011;65462;52.148;7.940;2023-02-28T01:10:16;3.50;;;1.50;;
76582;SDS011;65462;52.148;7.940;2023-02-28T01:12:41;3.70;;;1.63;;
76582;SDS011;65462;52.148;7.940;2023-02-28T01:15:09;2.97;;;1.40;;
76582;SDS011;65462;52.148;7.940;2023-02-28T01:17:35;3.93;;;1.60;;
76582;SDS011;65462;52.148;7.940;2023-02-28T01:20:01;3.97;;;1.37;;
76582;SDS011;65462;52.148;7.940;2023-02-28T01:22:28;2.47;;;1.40;;
76582;SDS011;65462;52.148;7.940;2023-02-28T01:24:53;5.60;;;1.57;;
76582;SDS011;65462;52.148;7.940;2023-02-28T01:27:18;3.00;;;1.33;;
76582;SDS011;65462;52.148;7.940;2023-02-28T01:29:44;2.20;;;1.13;;
76582;SDS011;65462;52.148;7.940;2023-02-28T01:32:09;2.97;;;1.50;;
76582;SDS011;65462;52.148;7.940;2023-02-28T01:34:35;2.07;;;1.20;;
76582;SDS011;65462;52.148;7.940;2023-02-28T01:37:00;2.40;;;1.27;;
76582;SDS011;65462;52.148;7.940;2023-02-28T01:39:26;2.30;;;1.00;;
76582;SDS011;65462;52.148;7.940;2023-02-28T01:41:51;3.00;;;1.20;;
76582;SDS011;65462;52.148;7.940;2023-02-28T01:47:20;2.13;;;1.00;;
76582;SDS011;65462;52.148;7.940;2023-02-28T01:49:47;2.23;;;0.97;;
76582;SDS011;65462;52.148;7.940;2023-02-28T01:52:13;2.57;;;1.10;;
76582;SDS011;65462;52.148;7.940;2023-02-28T01:54:43;2.37;;;1.00;;
76582;SDS011;65462;52.148;7.940;2023-02-28T01:57:13;1.93;;;1.13;;
76582;SDS011;65462;52.148;7.940;2023-02-28T02:00:03;3.50;;;1.23;;
76582;SDS011;65462;52.148;7.940;2023-02-28T02:02:29;2.23;;;1.20;;
76582;SDS011;65462;52.148;7.940;2023-02-28T02:05:08;2.03;;;1.13;;
76582;SDS011;65462;52.148;7.940;2023-02-28T02:07:35;2.77;;;1.10;;
76582;SDS011;65462;52.148;7.940;2023-02-28T02:10:13;1.67;;;1.10;;
76582;SDS011;65462;52.148;7.940;2023-02-28T02:12:46;3.23;;;1.10;;
76582;SDS011;65462;52.148;7.940;2023-02-28T02:15:19;1.63;;;0.73;;
76582;SDS011;65462;52.148;7.940;2023-02-28T02:17:52;1.92;;;0.73;;
76582;SDS011;65462;52.148;7.940;2023-02-28T02:37:46;1.77;;;1.10;;
76582;SDS011;65462;52.148;7.940;2023-02-28T02:39:57;1.70;;;1.00;;
76582;SDS011;65462;52.148;7.940;2023-02-28T02:42:39;3.53;;;1.30;;
76582;SDS011;65462;52.148;7.940;2023-02-28T02:45:10;2.50;;;0.90;;
76582;SDS011;65462;52.148;7.940;2023-02-28T02:47:41;3.90;;;1.40;;
76582;SDS011;65462;52.148;7.940;2023-02-28T02:50:11;4.07;;;1.40;;
76582;SDS011;65462;52.148;7.940;2023-02-28T02:52:42;2.47;;;1.20;;
76582;SDS011;65462;52.148;7.940;2023-02-28T02:55:13;2.07;;;1.00;;
76582;SDS011;65462;52.148;7.940;2023-02-28T02:57:45;1.50;;;0.90;;
76582;SDS011;65462;52.148;7.940;2023-02-28T03:00:14;1.10;;;0.88;;
76582;SDS011;65462;52.148;7.940;2023-02-28T03:02:43;2.70;;;1.10;;
76582;SDS011;65462;52.148;7.940;2023-02-28T03:05:15;2.30;;;1.10;;
76582;SDS011;65462;52.148;7.940;2023-02-28T03:07:45;4.00;;;1.10;;
76582;SDS011;65462;52.148;7.940;2023-02-28T03:15:50;3.17;;;1.00;;
76582;SDS011;65462;52.148;7.940;2023-02-28T03:21:23;4.33;;;1.40;;
76582;SDS011;65462;52.148;7.940;2023-02-28T03:26:43;2.20;;;1.03;;
76582;SDS011;65462;52.148;7.940;2023-02-28T03:31:44;3.00;;;1.40;;
76582;SDS011;65462;52.148;7.940;2023-02-28T03:34:24;2.43;;;1.13;;
76582;SDS011;65462;52.148;7.940;2023-02-28T03:36:55;2.27;;;0.80;;
76582;SDS011;65462;52.148;7.940;2023-02-28T03:42:01;1.00;;;0.70;;
76582;SDS011;65462;52.148;7.940;2023-02-28T03:44:32;2.90;;;1.10;;
76582;SDS011;65462;52.148;7.940;2023-02-28T03:47:03;1.40;;;1.00;;
76582;SDS011;65462;52.148;7.940;2023-02-28T03:49:40;2.83;;;1.20;;
76582;SDS011;65462;52.148;7.940;2023-02-28T03:52:10;1.03;;;0.70;;
76582;SDS011;65462;52.148;7.940;2023-02-28T03:54:38;1.57;;;0.80;;
76582;SDS011;65462;52.148;7.940;2023-02-28T03:57:23;1.77;;;0.90;;
76582;SDS011;65462;52.148;7.940;2023-02-28T03:59:59;2.43;;;1.00;;
76582;SDS011;65462;52.148;7.940;2023-02-28T04:02:30;2.67;;;0.93;;
76582;SDS011;65462;52.148;7.940;2023-02-28T04:04:56;0.83;;;0.77;;
76582;SDS011;65462;52.148;7.940;2023-02-28T04:07:21;3.57;;;1.07;;
76582;SDS011;65462;52.148;7.940;2023-02-28T04:09:46;1.97;;;1.30;;
76582;SDS011;65462;52.148;7.940;2023-02-28T04:12:12;1.33;;;0.90;;
76582;SDS011;65462;52.148;7.940;2023-02-28T04:14:37;1.43;;;0.90;;
76582;SDS011;65462;52.148;7.940;2023-02-28T04:17:02;3.43;;;1.03;;
76582;SDS011;65462;52.148;7.940;2023-02-28T04:19:28;2.03;;;0.80;;
76582;SDS011;65462;52.148;7.940;2023-02-28T04:21:53;2.93;;;1.20;;
76582;SDS011;65462;52.148;7.940;2023-02-28T04:24:22;1.90;;;0.93;;
76582;SDS011;65462;52.148;7.940;2023-02-28T04:26:51;1.80;;;1.03;;
76582;SDS011;65462;52.148;7.940;2023-02-28T04:29:31;1.97;;;0.90;;
76582;SDS011;65462;52.148;7.940;2023-02-28T04:31:59;2.67;;;1.30;;
76582;SDS011;65462;52.148;7.940;2023-02-28T04:34:26;1.40;;;1.00;;
76582;SDS011;65462;52.148;7.940;2023-02-28T04:36:53;1.00;;;0.90;;
76582;SDS011;65462;52.148;7.940;2023-02-28T04:39:20;2.10;;;1.10;;
76582;SDS011;65462;52.148;7.940;2023-02-28T04:41:49;2.60;;;0.90;;
76582;SDS011;65462;52.148;7.940;2023-02-28T04:44:15;3.80;;;1.17;;
76582;SDS011;65462;52.148;7.940;2023-02-28T04:46:41;2.83;;;0.90;;
76582;SDS011;65462;52.148;7.940;2023-02-28T04:49:07;2.13;;;1.00;;
76582;SDS011;65462;52.148;7.940;2023-02-28T04:51:33;2.30;;;0.90;;
76582;SDS011;65462;52.148;7.940;2023-02-28T04:53:58;1.80;;;1.00;;
76582;SDS011;65462;52.148;7.940;2023-02-28T04:56:24;2.27;;;1.20;;
76582;SDS011;65462;52.148;7.940;2023-02-28T04:58:49;1.90;;;1.03;;
76582;SDS011;65462;52.148;7.940;2023-02-28T05:03:49;1.73;;;1.00;;
76582;SDS011;65462;52.148;7.940;2023-02-28T05:06:15;2.30;;;1.00;;
76582;SDS011;65462;52.148;7.940;2023-02-28T05:08:42;1.70;;;1.00;;
76582;SDS011;65462;52.148;7.940;2023-02-28T05:11:12;2.20;;;1.03;;
76582;SDS011;65462;52.148;7.940;2023-02-28T05:13:40;2.13;;;1.20;;
76582;SDS011;65462;52.148;7.940;2023-02-28T05:16:05;1.30;;;0.87;;
76582;SDS011;65462;52.148;7.940;2023-02-28T05:18:31;2.20;;;1.07;;
76582;SDS011;65462;52.148;7.940;2023-02-28T05:20:56;1.77;;;1.30;;
76582;SDS011;65462;52.148;7.940;2023-02-28T05:23:21;2.37;;;1.17;;
76582;SDS011;65462;52.148;7.940;2023-02-28T05:25:47;1.73;;;0.90;;
76582;SDS011;65462;52.148;7.940;2023-02-28T05:28:13;1.90;;;1.20;;
76582;SDS011;65462;52.148;7.940;2023-02-28T05:30:38;2.40;;;1.10;;
76582;SDS011;65462;52.148;7.940;2023-02-28T05:33:03;4.17;;;1.30;;
76582;SDS011;65462;52.148;7.940;2023-02-28T05:35:28;1.90;;;1.03;;
76582;SDS011;65462;52.148;7.940;2023-02-28T05:37:54;2.63;;;1.20;;
76582;SDS011;65462;52.148;7.940;2023-02-28T05:40:19;2.80;;;1.37;;
76582;SDS011;65462;52.148;7.940;2023-02-28T05:42:45;4.43;;;1.50;;
76582;SDS011;65462;52.148;7.940;2023-02-28T05:45:11;1.33;;;0.93;;
76582;SDS011;65462;52.148;7.940;2023-02-28T05:47:36;4.03;;;1.37;;
76582;SDS011;65462;52.148;7.940;2023-02-28T05:50:02;2.67;;;1.40;;
76582;SDS011;65462;52.148;7.940;2023-02-28T05:52:28;2.23;;;1.17;;
76582;SDS011;65462;52.148;7.940;2023-02-28T05:57:30;3.20;;;1.23;;
76582;SDS011;65462;52.148;7.940;2023-02-28T06:02:30;3.50;;;1.00;;
76582;SDS011;65462;52.148;7.940;2023-02-28T06:04:55;3.13;;;1.50;;
76582;SDS011;65462;52.148;7.940;2023-02-28T06:07:21;1.63;;;0.90;;
76582;SDS011;65462;52.148;7.940;2023-02-28T06:09:47;1.50;;;0.80;;
76582;SDS011;65462;52.148;7.940;2023-02-28T06:12:12;2.87;;;1.23;;
76582;SDS011;65462;52.148;7.940;2023-02-28T06:14:37;2.30;;;1.10;;
76582;SDS011;65462;52.148;7.940;2023-02-28T06:17:03;2.37;;;1.10;;
76582;SDS011;65462;52.148;7.940;2023-02-28T06:19:28;1.93;;;0.90;;
76582;SDS011;65462;52.148;7.940;2023-02-28T06:21:55;2.60;;;1.10;;
76582;SDS011;65462;52.148;7.940;2023-02-28T06:24:22;2.90;;;1.20;;
76582;SDS011;65462;52.148;7.940;2023-02-28T06:26:48;1.70;;;1.10;;
76582;SDS011;65462;52.148;7.940;2023-02-28T06:29:14;3.67;;;1.20;;
76582;SDS011;65462;52.148;7.940;2023-02-28T06:31:43;2.00;;;0.70;;
76582;SDS011;65462;52.148;7.940;2023-02-28T06:34:12;2.03;;;1.10;;
76582;SDS011;65462;52.148;7.940;2023-02-28T06:36:38;2.07;;;0.90;;
76582;SDS011;65462;52.148;7.940;2023-02-28T06:39:04;2.00;;;1.00;;
76582;SDS011;65462;52.148;7.940;2023-02-28T06:41:30;3.60;;;1.00;;
76582;SDS011;65462;52.148;7.940;2023-02-28T06:43:56;4.07;;;0.93;;
76582;SDS011;65462;52.148;7.940;2023-02-28T06:46:22;3.70;;;0.90;;
76582;SDS011;65462;52.148;7.940;2023-02-28T06:48:48;2.43;;;0.90;;
76582;SDS011;65462;52.148;7.940;2023-02-28T06:51:15;3.47;;;1.03;;
76582;SDS011;65462;52.148;7.940;2023-02-28T06:53:42;1.77;;;1.00;;
76582;SDS011;65462;52.148;7.940;2023-02-28T06:56:09;3.97;;;0.90;;
76582;SDS011;65462;52.148;7.940;2023-02-28T06:58:37;2.73;;;1.00;;
76582;SDS011;65462;52.148;7.940;2023-02-28T07:01:04;3.50;;;1.00;;
76582;SDS011;65462;52.148;7.940;2023-02-28T07:03:30;2.77;;;1.00;;
76582;SDS011;65462;52.148;7.940;2023-02-28T07:05:56;2.23;;;1.00;;
76582;SDS011;65462;52.148;7.940;2023-02-28T07:08:22;1.73;;;0.90;;
76582;SDS011;65462;52.148;7.940;2023-02-28T07:10:50;1.70;;;1.00;;
76582;SDS011;65462;52.148;7.940;2023-02-28T07:13:17;3.87;;;0.97;;
76582;SDS011;65462;52.148;7.940;2023-02-28T07:15:42;1.60;;;0.83;;
76582;SDS011;65462;52.148;7.940;2023-02-28T07:18:07;5.13;;;1.10;;
76582;SDS011;65462;52.148;7.940;2023-02-28T07:20:33;2.80;;;0.90;;
76582;SDS011;65462;52.148;7.940;2023-02-28T07:22:58;1.50;;;1.00;;
76582;SDS011;65462;52.148;7.940;2023-02-28T07:25:23;4.27;;;1.00;;
76582;SDS011;65462;52.148;7.940;2023-02-28T07:27:50;3.90;;;0.80;;
76582;SDS011;65462;52.148;7.940;2023-02-28T07:30:16;2.40;;;1.17;;
76582;SDS011;65462;52.148;7.940;2023-02-28T07:32:42;3.73;;;0.90;;
76582;SDS011;65462;52.148;7.940;2023-02-28T07:35:07;1.40;;;0.87;;
76582;SDS011;65462;52.148;7.940;2023-02-28T07:37:33;3.80;;;0.97;;
76582;SDS011;65462;52.148;7.940;2023-02-28T07:40:05;1.37;;;0.73;;
76582;SDS011;65462;52.148;7.940;2023-02-28T07:42:36;1.97;;;0.83;;
76582;SDS011;65462;52.148;7.940;2023-02-28T07:45:03;0.83;;;0.70;;
76582;SDS011;65462;52.148;7.940;2023-02-28T07:47:29;1.50;;;0.80;;
76582;SDS011;65462;52.148;7.940;2023-02-28T07:49:55;1.43;;;0.73;;
76582;SDS011;65462;52.148;7.940;2023-02-28T07:52:21;2.17;;;0.90;;
76582;SDS011;65462;52.148;7.940;2023-02-28T07:54:48;4.17;;;0.93;;
76582;SDS011;65462;52.148;7.940;2023-02-28T07:57:13;2.43;;;0.83;;
76582;SDS011;65462;52.148;7.940;2023-02-28T07:59:39;1.67;;;0.90;;
76582;SDS011;65462;52.148;7.940;2023-02-28T08:02:04;3.07;;;1.10;;
76582;SDS011;65462;52.148;7.940;2023-02-28T08:04:31;2.27;;;0.70;;
76582;SDS011;65462;52.148;7.940;2023-02-28T08:06:57;1.93;;;0.90;;
76582;SDS011;65462;52.148;7.940;2023-02-28T08:09:23;2.10;;;1.10;;
76582;SDS011;65462;52.148;7.940;2023-02-28T08:11:48;2.37;;;1.00;;
76582;SDS011;65462;52.148;7.940;2023-02-28T08:14:13;3.73;;;1.20;;
76582;SDS011;65462;52.148;7.940;2023-02-28T08:16:39;2.27;;;1.17;;
76582;SDS011;65462;52.148;7.940;2023-02-28T08:19:04;3.80;;;1.20;;
76582;SDS011;65462;52.148;7.940;2023-02-28T08:21:29;3.60;;;1.40;;
76582;SDS011;65462;52.148;7.940;2023-02-28T08:23:54;2.43;;;0.90;;
76582;SDS011;65462;52.148;7.940;2023-02-28T08:26:21;2.97;;;1.10;;
76582;SDS011;65462;52.148;7.940;2023-02-28T08:28:47;2.30;;;1.13;;
76582;SDS011;65462;52.148;7.940;2023-02-28T08:31:13;3.30;;;1.00;;
76582;SDS011;65462;52.148;7.940;2023-02-28T08:33:40;3.07;;;1.40;;
76582;SDS011;65462;52.148;7.940;2023-02-28T08:36:06;3.23;;;1.40;;
76582;SDS011;65462;52.148;7.940;2023-02-28T08:38:32;2.73;;;1.37;;
76582;SDS011;65462;52.148;7.940;2023-02-28T08:40:58;2.50;;;1.20;;
76582;SDS011;65462;52.148;7.940;2023-02-28T08:43:25;2.60;;;0.97;;
76582;SDS011;65462;52.148;7.940;2023-02-28T08:45:51;2.00;;;1.10;;
76582;SDS011;65462;52.148;7.940;2023-02-28T08:48:17;2.83;;;1.20;;
76582;SDS011;65462;52.148;7.940;2023-02-28T08:50:42;3.80;;;1.20;;
76582;SDS011;65462;52.148;7.940;2023-02-28T08:53:07;3.17;;;1.30;;
76582;SDS011;65462;52.148;7.940;2023-02-28T08:55:33;3.43;;;1.47;;
76582;SDS011;65462;52.148;7.940;2023-02-28T08:57:58;5.87;;;1.23;;
76582;SDS011;65462;52.148;7.940;2023-02-28T09:00:23;3.47;;;1.00;;
76582;SDS011;65462;52.148;7.940;2023-02-28T09:02:49;1.23;;;0.73;;
76582;SDS011;65462;52.148;7.940;2023-02-28T09:05:14;2.17;;;1.00;;
76582;SDS011;65462;52.148;7.940;2023-02-28T09:07:39;2.07;;;0.93;;
76582;SDS011;65462;52.148;7.940;2023-02-28T09:10:05;2.20;;;0.77;;
76582;SDS011;65462;52.148;7.940;2023-02-28T09:12:32;1.50;;;0.60;;
76582;SDS011;65462;52.148;7.940;2023-02-28T09:14:59;1.20;;;0.80;;
76582;SDS011;65462;52.148;7.940;2023-02-28T09:17:25;2.53;;;0.73;;
76582;SDS011;65462;52.148;7.940;2023-02-28T09:19:50;1.33;;;0.60;;
76582;SDS011;65462;52.148;7.940;2023-02-28T09:22:15;1.30;;;0.63;;
76582;SDS011;65462;52.148;7.940;2023-02-28T09:24:41;2.37;;;0.70;;
76582;SDS011;65462;52.148;7.940;2023-02-28T09:27:06;1.83;;;0.60;;
76582;SDS011;65462;52.148;7.940;2023-02-28T09:29:33;1.67;;;0.70;;
76582;SDS011;65462;52.148;7.940;2023-02-28T09:31:59;3.50;;;0.60;;
76582;SDS011;65462;52.148;7.940;2023-02-28T09:34:25;1.47;;;0.77;;
76582;SDS011;65462;52.148;7.940;2023-02-28T09:36:51;1.20;;;0.53;;
76582;SDS011;65462;52.148;7.940;2023-02-28T09:39:19;1.47;;;0.80;;
76582;SDS011;65462;52.148;7.940;2023-02-28T09:41:47;1.17;;;0.60;;
76582;SDS011;65462;52.148;7.940;2023-02-28T09:47:05;2.57;;;0.77;;
76582;SDS011;65462;52.148;7.940;2023-02-28T09:49:38;3.80;;;0.90;;
76582;SDS011;65462;52.148;7.940;2023-02-28T09:52:18;2.17;;;0.73;;
76582;SDS011;65462;52.148;7.940;2023-02-28T09:54:54;1.57;;;0.80;;
76582;SDS011;65462;52.148;7.940;2023-02-28T10:05:47;1.07;;;0.60;;
76582;SDS011;65462;52.148;7.940;2023-02-28T10:11:27;4.13;;;0.70;;
76582;SDS011;65462;52.148;7.940;2023-02-28T10:13:56;2.43;;;0.90;;
76582;SDS011;65462;52.148;7.940;2023-02-28T10:21:53;3.57;;;1.07;;
76582;SDS011;65462;52.148;7.940;2023-02-28T10:24:27;2.30;;;0.80;;
76582;SDS011;65462;52.148;7.940;2023-02-28T10:26:58;3.33;;;0.83;;
76582;SDS011;65462;52.148;7.940;2023-02-28T10:29:26;1.67;;;1.03;;
76582;SDS011;65462;52.148;7.940;2023-02-28T10:31:52;1.53;;;0.97;;
76582;SDS011;65462;52.148;7.940;2023-02-28T10:34:18;2.07;;;0.90;;
76582;SDS011;65462;52.148;7.940;2023-02-28T10:36:43;1.70;;;0.80;;
76582;SDS011;65462;52.148;7.940;2023-02-28T10:42:21;1.53;;;0.70;;
76582;SDS011;65462;52.148;7.940;2023-02-28T10:45:10;2.10;;;0.90;;
76582;SDS011;65462;52.148;7.940;2023-02-28T10:53:32;1.37;;;0.90;;
76582;SDS011;65462;52.148;7.940;2023-02-28T11:01:15;2.00;;;1.03;;
76582;SDS011;65462;52.148;7.940;2023-02-28T11:04:01;3.50;;;0.97;;
76582;SDS011;65462;52.148;7.940;2023-02-28T11:06:33;1.40;;;0.90;;
76582;SDS011;65462;52.148;7.940;2023-02-28T11:09:04;2.90;;;1.10;;
76582;SDS011;65462;52.148;7.940;2023-02-28T11:11:43;2.50;;;1.13;;
76582;SDS011;65462;52.148;7.940;2023-02-28T11:14:22;2.87;;;1.00;;
76582;SDS011;65462;52.148;7.940;2023-02-28T11:16:48;2.87;;;1.33;;
76582;SDS011;65462;52.148;7.940;2023-02-28T11:19:19;4.37;;;1.40;;
76582;SDS011;65462;52.148;7.940;2023-02-28T11:21:57;2.20;;;1.03;;
76582;SDS011;65462;52.148;7.940;2023-02-28T11:24:39;2.13;;;1.30;;
76582;SDS011;65462;52.148;7.940;2023-02-28T11:27:24;3.10;;;1.20;;
76582;SDS011;65462;52.148;7.940;2023-02-28T11:29:51;2.13;;;1.20;;
76582;SDS011;65462;52.148;7.940;2023-02-28T11:32:19;3.80;;;1.40;;
76582;SDS011;65462;52.148;7.940;2023-02-28T11:34:46;1.77;;;1.33;;
76582;SDS011;65462;52.148;7.940;2023-02-28T11:37:24;2.73;;;1.20;;
76582;SDS011;65462;52.148;7.940;2023-02-28T11:39:52;2.00;;;1.20;;
76582;SDS011;65462;52.148;7.940;2023-02-28T11:45:11;2.93;;;1.50;;
76582;SDS011;65462;52.148;7.940;2023-02-28T11:55:27;2.10;;;1.30;;
76582;SDS011;65462;52.148;7.940;2023-02-28T11:58:45;1.73;;;1.23;;
76582;SDS011;65462;52.148;7.940;2023-02-28T12:01:25;2.90;;;1.27;;
76582;SDS011;65462;52.148;7.940;2023-02-28T12:06:46;1.97;;;1.20;;
76582;SDS011;65462;52.148;7.940;2023-02-28T12:12:30;2.80;;;1.33;;
76582;SDS011;65462;52.148;7.940;2023-02-28T12:28:18;2.30;;;1.30;;
76582;SDS011;65462;52.148;7.940;2023-02-28T12:30:54;1.90;;;1.10;;
76582;SDS011;65462;52.148;7.940;2023-02-28T12:33:26;2.40;;;1.40;;
76582;SDS011;65462;52.148;7.940;2023-02-28T12:35:58;2.20;;;1.33;;
76582;SDS011;65462;52.148;7.940;2023-02-28T12:38:36;2.07;;;1.30;;
76582;SDS011;65462;52.148;7.940;2023-02-28T12:41:13;2.57;;;1.60;;
76582;SDS011;65462;52.148;7.940;2023-02-28T12:43:43;1.67;;;1.30;;
76582;SDS011;65462;52.148;7.940;2023-02-28T12:46:20;2.13;;;1.20;;
76582;SDS011;65462;52.148;7.940;2023-02-28T12:48:51;2.33;;;1.20;;
76582;SDS011;65462;52.148;7.940;2023-02-28T12:51:21;3.90;;;1.40;;
76582;SDS011;65462;52.148;7.940;2023-02-28T12:53:50;1.80;;;1.10;;
76582;SDS011;65462;52.148;7.940;2023-02-28T12:59:14;3.33;;;1.33;;
76582;SDS011;65462;52.148;7.940;2023-02-28T13:01:55;2.70;;;1.47;;
76582;SDS011;65462;52.148;7.940;2023-02-28T13:07:13;2.47;;;1.40;;
76582;SDS011;65462;52.148;7.940;2023-02-28T13:09:53;3.70;;;1.50;;
76582;SDS011;65462;52.148;7.940;2023-02-28T13:12:21;4.23;;;1.50;;
76582;SDS011;65462;52.148;7.940;2023-02-28T13:14:48;2.53;;;1.67;;
76582;SDS011;65462;52.148;7.940;2023-02-28T13:17:18;3.80;;;1.70;;
76582;SDS011;65462;52.148;7.940;2023-02-28T13:22:19;2.00;;;1.50;;
76582;SDS011;65462;52.148;7.940;2023-02-28T13:25:00;2.83;;;1.90;;
76582;SDS011;65462;52.148;7.940;2023-02-28T13:27:36;2.67;;;1.70;;
76582;SDS011;65462;52.148;7.940;2023-02-28T13:30:59;3.03;;;1.77;;
76582;SDS011;65462;52.148;7.940;2023-02-28T13:33:25;2.63;;;1.67;;
76582;SDS011;65462;52.148;7.940;2023-02-28T13:38:40;3.75;;;1.75;;
76582;SDS011;65462;52.148;7.940;2023-02-28T13:46:28;3.47;;;1.83;;
76582;SDS011;65462;52.148;7.940;2023-02-28T13:48:54;2.63;;;1.93;;
76582;SDS011;65462;52.148;7.940;2023-02-28T13:52:02;3.20;;;1.90;;
76582;SDS011;65462;52.148;7.940;2023-02-28T13:54:15;3.57;;;1.80;;
76582;SDS011;65462;52.148;7.940;2023-02-28T13:56:48;3.38;;;1.80;;
76582;SDS011;65462;52.148;7.940;2023-02-28T14:07:15;3.57;;;2.10;;
76582;SDS011;65462;52.148;7.940;2023-02-28T14:09:50;2.75;;;1.50;;
76582;SDS011;65462;52.148;7.940;2023-02-28T14:15:27;5.20;;;1.67;;
76582;SDS011;65462;52.148;7.940;2023-02-28T14:18:01;1.58;;;1.27;;
76582;SDS011;65462;52.148;7.940;2023-02-28T14:20:31;2.37;;;1.40;;
76582;SDS011;65462;52.148;7.940;2023-02-28T14:25:40;3.33;;;1.60;;
76582;SDS011;65462;52.148;7.940;2023-02-28T14:30:56;2.57;;;1.60;;
76582;SDS011;65462;52.148;7.940;2023-02-28T14:36:23;2.73;;;1.50;;
76582;SDS011;65462;52.148;7.940;2023-02-28T14:38:58;2.30;;;1.30;;
76582;SDS011;65462;52.148;7.940;2023-02-28T14:41:30;3.70;;;1.40;;
76582;SDS011;65462;52.148;7.940;2023-02-28T14:44:00;3.65;;;1.50;;
76582;SDS011;65462;52.148;7.940;2023-02-28T14:46:30;3.23;;;1.53;;
76582;SDS011;65462;52.148;7.940;2023-02-28T14:49:02;2.60;;;1.40;;
76582;SDS011;65462;52.148;7.940;2023-02-28T14:51:29;3.23;;;1.60;;
76582;SDS011;65462;52.148;7.940;2023-02-28T14:53:59;3.53;;;1.60;;
76582;SDS011;65462;52.148;7.940;2023-02-28T14:56:30;2.83;;;1.70;;
76582;SDS011;65462;52.148;7.940;2023-02-28T14:59:00;3.95;;;1.77;;
76582;SDS011;65462;52.148;7.940;2023-02-28T15:01:26;2.87;;;1.70;;
76582;SDS011;65462;52.148;7.940;2023-02-28T15:04:02;3.80;;;1.60;;
76582;SDS011;65462;52.148;7.940;2023-02-28T15:06:30;2.93;;;1.47;;
76582;SDS011;65462;52.148;7.940;2023-02-28T15:09:10;3.87;;;1.60;;
76582;SDS011;65462;52.148;7.940;2023-02-28T15:11:39;4.00;;;1.60;;
76582;SDS011;65462;52.148;7.940;2023-02-28T15:14:04;4.10;;;1.70;;
76582;SDS011;65462;52.148;7.940;2023-02-28T15:16:37;3.30;;;1.80;;
76582;SDS011;65462;52.148;7.940;2023-02-28T15:19:13;3.23;;;2.00;;
76582;SDS011;65462;52.148;7.940;2023-02-28T15:21:46;2.90;;;1.40;;
76582;SDS011;65462;52.148;7.940;2023-02-28T15:27:07;2.77;;;1.90;;
76582;SDS011;65462;52.148;7.940;2023-02-28T15:29:42;4.33;;;1.93;;
76582;SDS011;65462;52.148;7.940;2023-02-28T15:32:28;3.47;;;1.80;;
76582;SDS011;65462;52.148;7.940;2023-02-28T15:34:56;3.03;;;1.80;;
76582;SDS011;65462;52.148;7.940;2023-02-28T15:45:46;3.60;;;1.77;;
76582;SDS011;65462;52.148;7.940;2023-02-28T15:48:20;3.90;;;1.97;;
76582;SDS011;65462;52.148;7.940;2023-02-28T15:51:07;3.40;;;1.87;;
76582;SDS011;65462;52.148;7.940;2023-02-28T15:54:01;3.83;;;2.10;;
76582;SDS011;65462;52.148;7.940;2023-02-28T15:56:27;3.60;;;2.00;;
76582;SDS011;65462;52.148;7.940;2023-02-28T15:58:57;3.53;;;2.00;;
76582;SDS011;65462;52.148;7.940;2023-02-28T16:01:26;2.93;;;1.90;;
76582;SDS011;65462;52.148;7.940;2023-02-28T16:03:55;3.53;;;2.43;;
76582;SDS011;65462;52.148;7.940;2023-02-28T16:06:34;3.50;;;2.30;;
76582;SDS011;65462;52.148;7.940;2023-02-28T16:09:05;3.27;;;2.20;;
76582;SDS011;65462;52.148;7.940;2023-02-28T16:11:33;4.10;;;2.20;;
76582;SDS011;65462;52.148;7.940;2023-02-28T16:14:00;4.07;;;2.30;;
76582;SDS011;65462;52.148;7.940;2023-02-28T16:16:25;3.83;;;2.50;;
76582;SDS011;65462;52.148;7.940;2023-02-28T16:18:51;3.80;;;2.30;;
76582;SDS011;65462;52.148;7.940;2023-02-28T16:21:18;4.50;;;2.50;;
76582;SDS011;65462;52.148;7.940;2023-02-28T16:23:43;3.43;;;2.40;;
76582;SDS011;65462;52.148;7.940;2023-02-28T16:26:12;4.33;;;2.67;;
76582;SDS011;65462;52.148;7.940;2023-02-28T16:28:46;4.43;;;2.50;;
76582;SDS011;65462;52.148;7.940;2023-02-28T16:31:12;3.90;;;2.27;;
76582;SDS011;65462;52.148;7.940;2023-02-28T16:33:41;5.23;;;2.60;;
76582;SDS011;65462;52.148;7.940;2023-02-28T16:36:19;3.40;;;2.30;;
76582;SDS011;65462;52.148;7.940;2023-02-28T16:38:46;4.10;;;2.53;;
76582;SDS011;65462;52.148;7.940;2023-02-28T16:41:12;4.87;;;2.50;;
76582;SDS011;65462;52.148;7.940;2023-02-28T16:43:43;3.57;;;1.90;;
76582;SDS011;65462;52.148;7.940;2023-02-28T16:46:10;2.37;;;1.80;;
76582;SDS011;65462;52.148;7.940;2023-02-28T16:48:37;3.27;;;2.23;;
76582;SDS011;65462;52.148;7.940;2023-02-28T16:51:04;4.07;;;2.27;;
76582;SDS011;65462;52.148;7.940;2023-02-28T16:53:30;4.17;;;2.33;;
76582;SDS011;65462;52.148;7.940;2023-02-28T16:55:55;3.43;;;2.37;;
76582;SDS011;65462;52.148;7.940;2023-02-28T16:58:20;4.27;;;1.90;;
76582;SDS011;65462;52.148;7.940;2023-02-28T17:00:46;4.17;;;2.20;;
76582;SDS011;65462;52.148;7.940;2023-02-28T17:03:18;5.07;;;2.40;;
76582;SDS011;65462;52.148;7.940;2023-02-28T17:05:47;5.30;;;2.00;;
76582;SDS011;65462;52.148;7.940;2023-02-28T17:08:12;4.60;;;1.97;;
76582;SDS011;65462;52.148;7.940;2023-02-28T17:10:38;3.20;;;1.67;;
76582;SDS011;65462;52.148;7.940;2023-02-28T17:13:03;3.53;;;2.03;;
76582;SDS011;65462;52.148;7.940;2023-02-28T17:15:28;4.07;;;2.10;;
76582;SDS011;65462;52.148;7.940;2023-02-28T17:17:54;3.50;;;2.03;;
76582;SDS011;65462;52.148;7.940;2023-02-28T17:20:20;3.77;;;2.23;;
76582;SDS011;65462;52.148;7.940;2023-02-28T17:22:51;3.23;;;1.97;;
76582;SDS011;65462;52.148;7.940;2023-02-28T17:25:17;6.27;;;2.90;;
76582;SDS011;65462;52.148;7.940;2023-02-28T17:27:43;4.17;;;2.50;;
76582;SDS011;65462;52.148;7.940;2023-02-28T17:30:19;7.27;;;2.57;;
76582;SDS011;65462;52.148;7.940;2023-02-28T17:32:46;2.93;;;2.20;;
76582;SDS011;65462;52.148;7.940;2023-02-28T17:35:11;3.47;;;2.03;;